Date,TemperatureHighF,TemperatureAvgF,TemperatureLowF,DewpointHighF,DewpointAvgF,DewpointLowF,HumidityHigh,HumidityAvg,HumidityLow,PressureMaxIn,PressureMinIn,WindSpeedMaxMPH,WindSpeedAvgMPH,GustSpeedMaxMPH,PrecipitationSumIn
2014-1-1,12.8,5.9,-4.5,5.0,-0.1,-7.9,86,77,56,30.45,30.33,12,2,12,0.00
2014-1-2,9.6,6.4,-4.2,4.3,0.2,-8.1,84,75,64,30.35,30.22,14,5,14,0.00
2014-1-3,13.1,2.3,-13.4,3.4,-4.8,-17.3,85,73,59,30.43,30.00,23,6,23,0.00
2014-1-4,30.2,22.2,13.0,25.9,15.6,3.3,93,76,64,30.01,29.77,28,10,28,0.00
2014-1-5,27.7,21.6,13.8,26.5,19.5,11.4,95,91,82,30.07,29.67,18,4,18,0.00
2014-1-6,13.6,4.9,-9.0,11.5,0.7,-13.7,91,82,71,29.99,29.66,22,7,22,0.00
2014-1-7,8.0,-1.2,-10.4,0.6,-7.0,-14.7,81,76,66,30.24,29.98,29,10,29,0.00
2014-1-8,15.5,7.3,1.5,7.1,2.2,-1.5,92,80,68,30.51,30.24,16,4,16,0.00
2014-1-9,14.3,4.8,-8.7,9.5,0.3,-12.2,87,82,68,30.59,30.28,12,1,12,0.00
2014-1-10,38.3,25.9,13.3,37.5,23.8,9.5,97,92,85,30.28,29.58,15,2,15,0.70
2014-1-11,39.7,36.6,31.4,38.9,34.8,28.1,98,93,84,29.57,29.22,23,8,23,0.24
2014-1-12,36.8,33.8,31.4,29.6,27.8,26.2,89,79,71,29.82,29.56,18,8,18,0.00
2014-1-13,40.0,35.6,30.2,35.6,31.5,27.1,91,85,74,29.63,29.45,16,4,16,0.02
2014-1-14,35.4,30.7,23.2,30.5,25.1,19.4,96,80,67,29.73,29.59,17,4,17,0.00
2014-1-15,27.7,22.0,18.8,23.5,15.6,11.2,91,76,64,29.94,29.59,21,8,21,0.00
2014-1-16,24.8,20.7,16.3,23.3,16.5,10.7,94,84,78,29.85,29.57,21,8,21,0.00
2014-1-17,27.4,23.8,18.7,26.1,19.3,14.4,95,83,67,29.85,29.55,18,6,18,0.00
2014-1-18,23.8,19.3,15.3,18.1,15.1,12.0,92,84,77,29.88,29.77,12,3,12,0.00
2014-1-19,28.3,23.0,12.7,24.7,19.3,9.8,92,86,79,29.77,29.43,26,9,26,0.00
2014-1-20,27.1,14.4,0.4,24.8,7.2,-6.8,92,73,57,30.13,29.47,17,2,17,0.00
2014-1-21,9.1,1.3,-8.4,-3.7,-6.4,-12.8,92,70,53,30.26,30.12,13,2,13,0.00
2014-1-22,10.4,1.8,-10.4,6.7,-2.1,-14.6,93,83,78,30.20,29.91,14,2,14,0.00
2014-1-23,12.5,4.4,-10.0,3.5,-1.8,-14.3,89,76,53,30.47,29.96,13,2,13,0.01
2014-1-24,17.2,7.7,-10.1,14.3,2.0,-14.1,88,78,58,30.41,29.35,38,14,38,0.00
2014-1-25,23.2,13.4,-1.6,21.6,6.3,-7.3,94,74,43,29.73,29.21,24,9,24,0.00
2014-1-26,17.1,7.1,-2.6,14.0,3.2,-6.5,89,84,69,29.73,29.33,24,5,24,0.00
2014-1-27,13.4,3.5,-5.5,5.4,-6.6,-15.6,83,63,40,30.24,29.42,28,11,28,0.00
2014-1-28,9.0,0.5,-8.4,-0.1,-5.6,-12.3,84,76,57,30.27,30.06,28,9,28,0.00
2014-1-29,18.2,10.1,0.6,7.0,3.1,-3.3,84,73,59,30.08,29.95,26,12,26,0.00
2014-1-30,26.5,20.0,11.4,23.8,11.4,2.6,91,70,55,30.03,29.64,29,13,29,0.00
2014-1-31,29.3,22.8,15.1,25.5,15.9,10.7,92,75,60,30.11,29.73,17,4,17,0.00
2014-2-1,22.6,16.6,7.5,20.3,14.2,4.9,93,90,84,30.12,29.86,7,1,7,0.00
2014-2-2,23.1,16.0,-0.4,16.9,11.5,-3.9,93,83,63,30.28,29.99,13,2,13,0.00
2014-2-3,19.8,7.5,-11.6,9.1,1.3,-15.6,88,76,62,30.37,30.30,16,3,16,0.00
2014-2-4,24.5,14.7,1.9,15.8,9.8,-1.1,90,81,68,30.43,30.22,7,1,7,0.02
2014-2-5,22.6,17.2,8.4,16.4,10.7,3.2,91,76,50,30.34,30.06,18,4,18,0.00
2014-2-6,15.8,10.2,5.8,8.8,4.4,1.1,92,77,68,30.35,30.19,26,6,26,0.00
2014-2-7,14.9,9.6,5.6,6.0,2.9,-0.9,82,74,65,30.23,30.17,25,11,25,0.00
2014-2-8,18.8,10.0,-0.3,11.7,5.2,-3.2,90,81,64,30.26,30.15,14,4,14,0.00
2014-2-9,23.7,13.8,3.8,16.5,8.7,1.0,90,81,60,30.15,30.01,12,1,12,0.01
2014-2-10,17.4,9.7,2.0,6.1,2.9,-1.5,89,74,58,30.39,30.15,14,2,14,0.00
2014-2-11,15.7,6.7,-4.4,0.9,-2.2,-9.0,83,67,50,30.51,30.39,12,2,12,0.00
2014-2-12,19.7,7.8,-4.9,6.8,0.3,-9.0,85,72,52,30.43,30.08,16,2,16,0.00
2014-2-13,28.4,17.9,5.7,16.1,9.4,1.1,92,70,46,30.07,29.60,15,2,15,0.02
2014-2-14,28.0,22.9,8.6,22.1,17.1,2.8,93,79,69,29.83,29.49,15,5,15,0.00
2014-2-15,22.1,9.6,-1.8,8.3,2.4,-5.0,92,73,52,30.04,29.83,12,2,12,0.00
2014-2-16,21.2,13.3,-1.9,15.1,9.0,-5.3,90,83,71,30.37,29.95,10,1,10,0.01
2014-2-17,18.1,5.0,-13.0,12.8,-0.6,-17.2,91,78,51,30.40,29.69,16,3,16,0.00
2014-2-18,38.4,24.1,12.1,29.9,19.4,9.5,92,83,70,29.93,29.58,18,6,18,0.04
2014-2-19,46.4,35.8,26.7,31.4,26.3,21.0,92,70,42,29.95,29.56,18,5,18,0.28
2014-2-20,38.1,30.8,25.9,32.1,26.2,21.8,95,83,66,29.98,29.60,16,2,16,0.03
2014-2-24,14.3,11.1,8.3,6.0,5.2,4.5,84,77,68,30.16,30.13,13,1,13,0.00
2014-2-25,20.7,10.5,2.1,11.5,4.5,-1.0,89,77,57,30.15,29.98,26,5,26,0.00
2014-2-26,14.0,5.6,-5.1,6.0,-1.6,-8.8,86,73,53,30.07,29.52,26,8,26,0.00
2014-2-27,10.0,2.7,-13.4,6.4,-8.0,-20.1,88,62,41,30.24,29.48,25,6,25,0.01
2014-2-28,15.4,-0.2,-22.1,9.6,-10.5,-27.3,81,63,43,30.36,30.08,17,3,17,0.00
2014-3-1,20.6,15.1,8.5,15.0,9.0,-0.9,90,77,55,30.33,30.03,14,2,14,0.02
2014-3-2,14.8,7.3,-1.2,2.0,-4.4,-11.0,83,59,46,30.39,30.28,17,2,17,0.00
2014-3-3,14.3,3.3,-13.5,-2.4,-7.3,-17.7,81,62,43,30.50,30.38,16,2,16,0.00
2014-3-4,19.2,12.7,4.7,13.1,6.9,-4.5,86,77,65,30.39,30.20,10,2,10,0.00
2014-3-5,19.7,12.2,2.5,11.9,6.7,-0.3,88,79,61,30.58,30.27,13,2,13,0.00
2014-3-6,23.0,9.9,-5.4,9.4,2.5,-8.7,88,73,52,30.57,30.16,14,2,14,0.00
2014-3-7,43.7,25.0,0.2,27.2,13.7,-3.5,85,64,35,30.16,29.84,17,3,17,0.04
2014-3-8,37.3,28.5,17.9,28.3,20.3,10.0,83,72,55,30.17,29.89,12,3,12,0.00
2014-3-9,35.4,24.1,9.1,24.6,15.5,5.8,88,71,50,30.16,29.74,23,7,23,0.00
2014-3-10,53.2,40.4,31.4,36.3,32.2,24.6,90,74,52,29.74,29.42,22,6,23,0.00
2014-3-11,53.8,42.2,33.0,34.6,32.4,29.0,85,70,44,29.76,29.54,12,2,15,0.00
2014-3-12,33.7,22.5,10.7,29.3,12.1,-2.7,93,66,40,30.05,29.70,17,5,17,0.02
2014-3-13,24.9,14.4,-1.2,17.8,3.2,-5.9,81,62,37,30.12,29.89,20,5,20,0.00
2014-3-14,51.7,36.9,23.9,35.4,27.6,17.7,89,70,45,29.88,29.40,30,10,30,0.01
2014-3-15,38.2,27.9,13.7,32.7,18.4,5.4,90,68,48,30.33,29.60,18,8,18,0.01
2014-3-16,15.1,8.8,3.6,5.6,0.6,-2.2,83,69,52,30.47,30.25,13,3,13,0.00
2014-3-17,25.1,14.0,2.2,14.7,5.8,-0.8,88,71,52,30.25,29.96,13,2,13,0.00
2014-3-18,37.9,29.4,18.5,29.0,22.4,15.0,88,75,63,30.02,29.89,12,2,12,0.00
2014-3-19,41.2,35.1,30.3,40.4,33.0,26.9,97,92,84,29.89,29.51,20,3,20,0.16
2014-3-20,35.9,32.7,27.2,29.2,23.5,18.5,88,70,54,30.02,29.71,25,8,25,0.00
2014-3-21,38.3,28.9,17.6,29.0,21.7,15.4,95,75,53,30.06,29.71,13,2,13,0.00
2014-3-22,34.6,28.7,16.9,29.5,22.7,8.4,95,79,58,30.26,29.69,21,4,21,0.20
2014-3-23,22.9,15.4,5.6,8.7,5.0,1.5,92,64,48,30.38,30.26,17,3,17,0.00
2014-3-24,27.6,16.1,0.5,14.4,7.1,-2.6,88,69,45,30.35,30.04,20,4,20,0.01
2014-3-25,27.3,21.3,9.0,18.8,11.3,1.8,88,66,43,30.17,29.85,17,5,17,0.01
2014-3-26,29.4,16.1,-1.9,17.5,6.1,-5.1,88,66,46,30.32,30.13,18,3,18,0.00
2014-3-27,36.9,32.2,27.2,35.2,27.0,16.6,96,81,62,30.13,29.56,16,4,16,0.22
2014-3-28,43.7,37.9,30.0,43.2,34.8,25.9,98,89,73,30.19,29.43,20,4,20,0.42
2014-3-29,37.7,32.1,27.4,28.7,25.9,20.8,89,78,63,30.24,30.14,13,3,13,0.00
2014-3-30,48.4,36.6,22.2,29.2,23.9,19.0,89,62,40,30.20,30.08,12,2,12,0.00
2014-3-31,59.7,42.8,26.6,40.0,30.9,23.4,89,65,41,30.15,29.87,18,3,18,0.00
2014-4-1,52.3,40.0,31.5,43.2,30.7,24.5,79,70,51,29.94,29.60,31,10,31,0.04
2014-4-2,49.4,35.8,25.1,27.6,23.1,19.2,80,61,40,30.20,29.95,17,3,17,0.00
2014-4-3,35.1,31.6,28.9,28.4,25.5,20.6,88,78,57,30.20,29.91,20,6,20,0.00
2014-4-4,39.9,34.2,31.7,39.3,31.8,27.8,98,91,81,29.86,29.34,31,6,31,0.62
2014-4-5,45.4,34.0,26.9,27.6,22.2,17.3,81,64,37,30.14,29.63,23,9,23,0.00
2014-4-6,55.2,41.3,27.5,34.6,27.0,20.2,79,59,38,30.15,29.97,21,4,21,0.00
2014-4-7,54.1,41.9,28.6,34.2,29.4,25.5,89,63,39,29.98,29.52,13,2,13,0.00
2014-4-8,59.4,46.8,36.8,38.1,32.3,26.9,73,58,43,29.80,29.48,20,4,20,0.00
2014-4-9,55.7,43.3,28.4,31.8,27.4,22.7,80,56,34,29.94,29.79,20,5,20,0.00
2014-4-10,63.7,52.2,46.4,45.6,37.6,31.8,81,58,43,29.82,29.54,33,10,33,0.01
2014-4-11,62.4,48.6,31.6,33.5,29.4,25.3,82,50,27,29.99,29.82,26,4,26,0.00
2014-4-12,55.1,43.1,32.1,47.7,36.1,27.3,98,78,48,30.06,29.78,23,4,23,1.36
2014-4-13,60.3,53.3,47.2,54.8,51.4,45.8,98,94,80,29.80,29.52,23,3,23,1.32
2014-4-14,46.5,41.9,33.2,45.0,38.4,27.5,97,88,70,29.84,29.24,20,2,20,0.09
2014-4-15,33.2,30.6,27.2,27.7,19.1,8.5,80,63,41,30.21,29.81,25,4,25,0.13
2014-4-16,42.2,32.8,27.6,26.0,17.4,11.8,66,53,44,30.42,30.21,16,2,16,0.00
2014-4-17,63.7,46.3,35.9,39.6,30.9,25.3,65,56,39,30.35,30.11,23,3,23,0.00
2014-4-18,59.0,53.4,34.2,38.8,36.4,26.6,86,53,46,30.36,30.17,14,2,14,0.00
2014-4-19,50.1,37.7,25.6,35.9,30.2,23.9,95,76,57,30.48,30.31,16,3,16,0.00
2014-4-20,71.9,52.4,30.5,39.9,34.1,28.1,100,57,26,30.32,30.00,15,3,15,0.00
2014-4-21,79.0,63.5,56.0,59.0,47.1,36.8,96,58,38,30.00,29.65,23,4,23,0.20
2014-4-22,56.1,43.0,35.6,55.0,36.8,29.6,96,79,69,29.94,29.62,23,10,33,0.07
2014-4-23,57.1,41.2,30.2,30.3,24.9,15.2,92,58,21,30.10,29.94,13,3,13,0.00
2014-4-24,53.7,42.2,30.3,32.6,26.5,19.9,85,57,31,30.15,29.87,16,4,16,0.00
2014-4-25,52.8,43.3,39.1,44.2,37.3,27.9,95,80,56,29.87,29.66,12,2,12,0.23
2014-4-26,47.6,41.7,38.6,41.3,36.0,32.9,95,80,64,30.11,29.72,18,3,18,0.00
2014-4-27,46.7,40.4,31.9,34.1,30.8,28.2,91,69,54,30.19,30.10,22,6,22,0.00
2014-4-28,51.9,44.9,39.1,37.8,33.6,29.6,81,65,50,30.11,29.80,27,11,27,0.00
2014-4-29,64.1,48.3,41.3,57.3,44.7,34.8,98,88,64,29.82,29.54,20,5,20,1.07
2014-4-30,62.5,55.7,49.2,53.7,51.2,48.4,98,86,67,29.74,29.67,13,3,13,0.03
2014-5-1,53.3,45.6,39.3,50.7,40.8,36.3,94,84,70,29.69,29.63,22,7,22,0.06
2014-5-2,52.8,46.8,42.4,44.9,42.5,38.8,95,85,70,29.70,29.62,20,7,20,0.04
2014-5-3,56.2,47.4,42.9,47.7,42.8,37.6,98,85,55,29.78,29.53,29,5,29,0.50
2014-5-4,54.2,44.2,36.6,39.5,35.6,30.8,100,74,43,30.06,29.77,20,4,20,0.01
2014-5-5,55.7,42.0,31.9,42.5,36.6,30.4,95,82,52,30.10,29.95,13,2,13,0.00
2014-5-6,53.7,44.5,32.3,40.8,35.6,31.3,97,73,51,30.11,29.99,16,4,16,0.00
2014-5-7,55.1,46.4,38.9,44.5,39.7,32.2,90,78,60,30.10,29.94,17,4,17,0.06
2014-5-8,78.7,60.2,47.3,64.9,52.5,42.1,90,77,61,29.97,29.77,14,3,14,0.00
2014-5-9,74.4,68.7,58.4,63.4,59.7,48.2,89,74,54,29.77,29.53,33,11,33,0.10
2014-5-10,69.2,58.2,50.2,48.4,41.9,36.4,80,57,31,29.82,29.68,28,11,28,0.00
2014-5-14,53.0,48.8,46.0,45.3,42.7,39.8,90,80,68,30.07,30.00,12,3,12,0.05
2014-5-15,46.7,43.4,37.2,44.1,40.8,32.5,96,91,80,30.00,29.69,20,6,20,1.17
2014-5-16,50.7,42.3,35.6,36.6,33.8,31.1,86,73,55,30.01,29.93,14,5,14,0.00
2014-5-17,44.2,35.8,32.3,35.6,32.7,30.8,95,89,69,30.05,29.99,5,0,5,0.00
2014-5-18,67.4,63.1,52.3,41.1,39.2,36.5,64,42,34,30.14,30.10,23,8,23,0.00
2014-5-19,72.3,59.9,45.6,46.4,42.0,37.7,78,54,36,30.20,30.05,17,4,17,0.00
2014-5-20,64.9,55.6,50.2,56.2,50.5,41.7,96,84,47,30.12,29.82,17,3,17,0.51
2014-5-21,84.1,66.2,50.1,65.8,54.2,46.3,98,70,28,29.83,29.71,21,2,21,0.00
2014-5-22,69.0,59.0,50.2,57.0,48.3,42.7,88,69,46,30.03,29.81,23,5,23,0.00
2014-5-23,70.8,56.8,46.0,55.6,47.4,42.2,89,72,48,30.12,30.01,16,3,16,0.00
2014-5-24,79.2,62.9,44.1,50.7,46.1,42.6,97,60,29,30.17,30.05,12,1,12,0.00
2014-5-25,82.7,66.5,47.3,56.7,51.1,45.9,97,62,36,30.10,29.96,15,3,15,0.00
2014-5-26,84.5,69.4,51.1,65.5,58.2,49.6,96,70,44,29.98,29.81,22,4,22,0.00
2014-5-27,78.7,70.5,62.3,70.5,65.3,59.8,96,84,72,29.85,29.76,13,2,13,0.00
2014-5-28,67.2,59.5,48.6,60.1,51.9,46.9,94,77,61,30.08,29.85,13,3,13,0.00
2014-5-29,73.0,58.2,42.9,58.7,51.0,42.1,98,79,51,30.14,30.06,12,1,12,0.00
2014-5-30,85.8,64.1,46.1,60.7,53.2,45.3,99,72,39,30.17,30.06,14,1,14,0.00
2014-5-31,81.5,66.1,49.7,57.7,52.9,48.6,97,67,36,30.22,30.07,12,1,12,0.00
2014-6-1,86.6,70.6,50.5,62.5,55.0,48.1,93,61,37,30.12,29.87,18,2,18,0.00
2014-6-2,82.4,72.5,66.2,72.1,64.4,55.3,97,76,61,29.89,29.64,24,5,24,0.69
2014-6-3,71.8,67.3,58.1,66.1,58.3,51.1,97,75,50,29.82,29.65,23,7,23,0.00
2014-6-4,72.0,62.1,50.0,58.4,52.7,46.8,98,73,46,29.86,29.76,9,1,9,0.00
2014-6-5,78.2,59.9,43.8,53.4,47.0,42.5,96,67,34,29.92,29.83,12,2,12,0.00
2014-6-6,81.8,61.4,41.7,57.1,49.6,40.6,97,70,33,29.96,29.89,7,0,7,0.00
2014-6-7,83.9,67.0,47.4,64.4,54.5,46.3,98,69,36,30.00,29.81,9,0,9,0.00
2014-6-8,74.9,65.5,57.7,62.1,58.3,53.8,94,78,61,29.97,29.77,13,1,13,0.00
2014-6-9,76.4,60.5,46.1,59.3,52.4,44.2,98,77,51,30.01,29.90,12,2,12,0.00
2014-6-10,68.0,60.4,49.7,54.7,51.3,47.3,93,73,53,29.94,29.86,12,1,12,0.00
2014-6-11,66.8,61.3,55.8,64.4,58.5,50.8,98,91,70,29.86,29.67,7,1,7,0.25
2014-6-12,78.0,67.6,60.9,68.0,63.2,60.4,99,87,63,29.70,29.62,15,2,15,0.01
2014-6-13,65.9,55.4,43.6,61.2,48.9,42.3,95,79,67,29.99,29.66,16,3,16,0.00
2014-6-14,75.3,56.1,39.1,55.4,47.4,38.3,98,76,42,30.12,29.99,9,1,9,0.00
2014-6-15,80.0,65.8,48.6,61.0,54.2,46.9,96,69,43,30.09,29.85,22,3,22,0.00
2014-6-16,85.4,75.1,60.7,68.2,61.8,58.1,92,66,42,29.95,29.85,14,2,14,0.00
2014-6-17,80.7,69.5,58.1,74.0,64.7,56.7,97,86,64,29.91,29.67,24,4,24,0.12
2014-6-18,71.8,64.1,59.0,69.5,63.1,58.2,100,97,87,30.01,29.86,12,1,12,0.38
2014-6-19,70.7,64.3,50.5,61.0,52.4,31.4,98,68,33,30.15,30.00,17,4,17,0.00
2014-6-20,67.0,58.2,47.8,62.1,52.8,40.9,95,82,71,30.11,29.93,10,1,10,0.14
2014-6-21,78.5,65.2,54.8,62.8,55.0,49.3,87,71,52,29.97,29.85,10,0,9,0.00
2014-6-22,79.5,64.9,55.6,67.5,59.2,54.0,96,83,61,29.89,29.80,12,0,24,0.00
2014-6-23,76.0,69.3,62.3,69.4,63.0,54.1,97,81,61,29.86,29.77,12,1,12,0.09
2014-6-24,79.8,70.7,63.8,72.7,68.4,62.9,99,93,74,29.85,29.76,12,1,12,1.17
2014-6-25,71.8,63.7,57.0,65.3,60.9,55.6,99,91,77,29.98,29.84,12,1,12,0.13
2014-6-26,77.8,64.4,51.9,65.8,57.8,51.3,99,81,55,30.04,29.97,7,0,7,0.00
2014-6-27,81.1,67.2,51.8,68.5,59.3,51.0,98,78,52,30.08,30.00,7,0,7,0.00
2014-6-28,87.7,72.5,56.8,73.4,65.9,56.0,98,81,58,30.06,29.94,17,2,17,0.00
2014-6-29,82.0,74.6,66.2,73.7,69.5,64.7,98,85,64,29.96,29.80,23,4,23,0.73
2014-6-30,85.5,76.7,65.0,74.7,71.4,63.8,98,84,67,29.82,29.61,20,4,20,0.07
2014-7-1,79.9,71.0,65.0,69.1,65.3,61.9,98,83,60,29.64,29.46,22,6,22,0.14
2014-7-2,71.1,65.7,60.3,63.6,61.0,55.1,94,85,70,29.91,29.63,20,4,20,0.00
2014-7-3,71.0,60.3,51.7,60.5,53.3,46.3,95,78,64,30.12,29.90,10,1,10,0.00
2014-7-4,77.4,62.0,48.2,57.2,51.2,47.4,98,72,38,30.25,30.12,12,1,12,0.01
2014-7-5,78.6,63.3,46.5,61.8,54.2,45.7,98,76,42,30.22,29.99,15,2,15,0.00
2014-7-6,78.0,67.5,55.1,69.3,62.5,54.3,97,85,70,29.99,29.62,16,4,16,0.14
2014-7-7,82.2,74.0,67.2,70.7,66.4,61.5,99,79,51,29.63,29.50,22,5,22,0.46
2014-7-8,73.5,67.2,59.6,67.0,62.4,56.1,96,85,69,29.70,29.44,21,3,21,0.09
2014-7-9,71.9,61.3,51.3,58.9,53.9,49.6,95,78,57,29.98,29.69,12,1,12,0.00
2014-7-10,75.3,61.8,48.8,58.5,52.0,47.5,98,74,40,30.14,29.98,7,0,7,0.00
2014-7-11,79.7,64.6,46.9,64.4,56.3,46.1,100,78,46,30.19,30.07,12,1,12,0.00
2014-7-12,80.0,69.5,57.1,73.3,65.3,56.3,98,88,64,30.09,29.76,13,1,13,0.35
2014-7-13,78.8,71.9,60.6,69.9,66.3,58.6,99,84,62,29.82,29.65,16,3,16,0.37
2014-7-14,79.5,67.7,55.3,65.1,58.4,51.0,98,75,42,29.82,29.68,13,1,13,0.00
2014-7-15,65.3,59.2,52.5,59.0,55.4,49.8,98,87,71,29.83,29.63,21,3,21,0.19
2014-7-16,69.7,58.1,50.5,59.5,53.7,48.8,95,86,63,29.94,29.82,10,1,10,0.00
2014-7-17,76.9,61.0,44.0,60.1,52.7,43.2,98,77,45,30.07,29.94,12,1,12,0.01
2014-7-18,78.2,63.6,47.2,63.2,55.2,46.3,98,77,47,30.17,30.07,10,1,10,0.00
2014-7-19,80.1,66.6,52.1,63.8,58.4,51.3,98,78,47,30.10,29.97,12,1,12,0.00
2014-7-20,81.8,67.1,52.8,67.8,60.6,52.0,99,82,53,30.03,29.95,9,0,9,0.00
2014-7-21,84.3,70.5,55.6,72.0,64.0,54.8,99,82,60,30.05,29.98,15,1,15,0.00
2014-7-22,85.8,74.1,61.5,72.6,67.6,60.9,98,82,62,30.01,29.80,23,4,23,0.03
2014-7-23,73.5,66.0,56.5,70.0,59.7,54.4,96,81,63,30.05,29.85,20,2,20,0.02
2014-7-24,75.7,61.6,47.4,60.3,53.6,46.4,98,78,47,30.10,29.98,6,0,6,0.00
2014-7-25,75.5,62.3,47.7,65.3,56.5,46.9,99,83,57,30.02,29.86,15,1,15,0.01
2014-7-26,77.5,68.0,58.1,70.5,63.6,57.0,98,87,72,29.87,29.67,12,1,12,0.07
2014-7-27,76.5,64.3,59.0,72.6,62.7,58.2,99,95,73,29.70,29.53,16,1,16,0.59
2014-7-28,65.7,59.4,50.1,60.8,55.0,48.8,100,87,63,29.95,29.70,12,1,12,0.12
2014-7-29,74.8,59.3,47.6,63.3,55.3,46.8,98,87,60,29.95,29.85,13,1,13,0.00
2014-7-30,75.5,63.2,53.1,58.3,55.0,52.3,100,77,49,29.95,29.88,12,1,12,0.00
2014-7-31,78.5,64.1,52.3,64.0,57.0,51.2,98,80,51,29.95,29.90,15,2,15,0.00
2014-8-1,82.3,67.8,55.0,71.2,61.9,54.4,99,83,52,30.03,29.95,9,0,9,0.00
2014-8-2,79.8,66.2,53.7,71.0,62.3,52.9,99,88,62,30.08,30.01,6,0,6,0.06
2014-8-3,83.5,68.7,56.8,70.5,63.0,56.2,100,85,51,30.07,29.97,12,0,12,0.21
2014-8-4,83.4,69.9,58.7,69.3,63.5,58.3,99,82,51,30.03,29.96,12,0,12,0.01
2014-8-5,78.9,67.6,61.3,68.0,63.0,59.1,98,87,59,30.03,29.95,10,0,10,0.77
2014-8-6,79.5,65.8,52.7,65.0,58.9,52.2,99,81,46,30.02,29.97,6,0,6,0.00
2014-8-7,77.4,64.7,52.4,66.6,58.9,51.6,98,83,55,30.08,30.01,10,1,10,0.00
2014-8-8,77.3,64.2,51.2,64.7,58.0,50.4,99,83,52,30.13,30.06,10,1,10,0.01
2014-8-9,78.2,64.8,50.6,65.3,58.5,49.9,99,82,55,30.12,30.06,13,1,13,0.00
2014-8-10,81.6,66.9,52.4,67.8,60.3,51.6,98,82,53,30.09,29.95,7,1,7,0.01
2014-8-11,76.8,67.3,61.3,71.0,65.0,60.4,98,93,76,29.97,29.64,9,0,9,0.61
2014-8-12,71.1,63.0,56.9,66.3,61.7,54.9,99,96,83,29.79,29.55,13,2,13,0.20
2014-8-13,74.8,62.2,51.2,57.7,53.4,49.2,98,76,44,29.95,29.78,14,3,14,0.00
2014-8-14,69.3,56.6,45.2,52.2,47.3,44.0,97,74,42,30.00,29.92,16,1,18,0.00
2014-8-15,70.5,51.0,42.7,52.3,45.8,41.6,98,84,50,30.00,29.95,3,0,12,0.00
2014-8-16,73.4,67.0,55.7,68.0,64.0,53.7,97,90,80,29.87,29.76,14,2,14,0.02
2014-8-17,73.5,61.8,50.1,63.4,58.3,49.6,100,89,68,29.98,29.87,9,0,9,0.01
2014-8-18,75.0,62.9,50.1,65.3,58.5,49.6,100,87,66,29.96,29.76,12,1,12,0.01
2014-8-19,72.0,67.1,62.6,70.0,65.2,60.7,98,94,87,29.77,29.63,13,1,13,0.21
2014-8-20,79.3,69.8,62.2,71.5,66.3,61.1,99,90,67,29.88,29.67,12,1,12,0.30
2014-8-21,76.0,65.8,56.1,69.9,62.8,55.5,99,91,72,29.95,29.87,6,0,6,0.01
2014-8-22,79.1,69.2,62.3,70.1,65.5,61.7,99,89,70,29.98,29.88,7,0,7,0.00
2014-8-23,77.5,67.7,60.6,69.0,64.4,60.0,99,90,71,30.04,29.97,12,1,12,0.00
2014-8-24,72.3,67.1,61.3,68.5,65.2,60.7,99,94,86,30.07,30.01,8,0,9,0.00
2014-8-25,82.3,71.7,63.2,76.7,69.3,62.6,99,93,78,30.03,29.91,13,0,13,0.02
2014-8-26,82.7,73.0,64.7,75.8,70.0,62.8,99,91,78,30.02,29.92,12,1,12,0.01
2014-8-27,74.3,63.9,53.2,62.7,58.3,50.9,97,83,60,30.10,30.02,7,0,7,0.00
2014-8-28,71.0,57.5,44.1,56.9,50.6,43.3,98,80,53,30.15,30.06,7,0,7,0.00
2014-8-29,72.3,64.5,54.9,65.3,58.7,52.0,95,82,74,30.08,29.91,12,2,12,0.00
2014-8-30,80.0,71.4,66.0,73.6,67.6,60.9,97,88,77,29.91,29.70,18,4,20,0.73
2014-8-31,82.3,70.8,63.4,71.2,66.7,62.8,98,88,64,29.88,29.78,13,1,13,0.00
2014-9-1,80.0,68.6,58.2,73.7,66.6,57.6,100,94,80,29.84,29.61,18,2,18,0.58
2014-9-2,78.5,69.2,56.8,67.2,62.4,55.9,99,81,52,29.86,29.71,13,1,13,0.01
2014-9-3,80.5,66.2,53.0,67.0,59.8,52.5,99,82,54,29.96,29.86,10,1,13,0.00
2014-9-4,79.5,68.0,56.0,71.7,64.4,55.4,99,89,71,29.97,29.84,17,2,17,0.02
2014-9-5,81.5,73.3,62.0,76.5,70.4,60.4,98,91,82,29.92,29.77,20,3,20,0.61
2014-9-6,72.6,61.2,52.2,60.7,55.8,50.8,96,84,49,30.08,29.89,12,0,12,0.01
2014-9-7,76.6,66.0,50.3,60.7,56.1,49.1,96,73,48,30.16,30.08,10,1,10,0.00
2014-9-8,76.3,66.4,51.0,62.2,57.4,50.1,97,75,50,30.14,29.99,12,1,12,0.01
2014-9-9,78.7,65.2,55.0,65.3,58.7,54.2,98,82,54,30.01,29.89,10,1,10,0.00
2014-9-10,71.6,64.9,57.5,70.9,63.9,56.7,98,97,93,29.91,29.40,21,4,21,0.84
2014-9-11,59.1,52.4,49.0,57.3,48.2,45.5,94,86,76,30.20,29.52,20,4,20,0.00
2014-9-12,54.5,48.2,44.1,49.1,46.1,43.0,97,93,78,30.29,30.17,7,1,7,0.40
2014-9-13,57.5,47.6,38.1,48.5,44.0,37.1,98,88,62,30.29,30.08,15,2,15,0.48
2014-9-14,59.7,47.3,35.2,51.4,43.4,34.2,98,87,66,30.31,30.13,12,1,12,0.00
2014-9-15,55.4,49.4,42.0,54.5,48.4,41.2,98,97,95,30.13,30.03,5,0,5,0.13
2014-9-16,63.9,50.5,39.8,54.3,46.3,39.3,99,87,58,30.12,30.02,16,2,16,0.01
2014-9-17,66.7,51.2,38.5,54.1,46.1,37.7,98,85,56,30.02,29.91,16,1,16,0.01
2014-9-18,45.3,45.2,45.0,44.2,44.1,43.9,96,96,96,29.98,29.97,0,0,0,0.00
2014-9-21,55.2,49.8,46.3,53.7,46.3,40.1,95,88,80,30.00,29.67,16,3,16,0.75
2014-9-22,63.1,50.6,41.0,52.2,45.3,39.7,97,83,60,30.17,30.00,15,2,15,0.00
2014-9-23,75.1,56.3,42.2,61.2,51.6,41.6,99,86,55,30.29,30.17,12,1,12,0.01
2014-9-24,73.9,57.5,43.6,60.2,52.0,43.1,99,84,52,30.39,30.29,10,1,10,0.00
2014-9-25,75.5,57.8,43.3,63.4,53.5,42.4,99,87,54,30.31,30.20,7,0,7,0.01
2014-9-26,77.1,58.8,44.4,63.8,53.5,43.7,99,85,54,30.28,30.20,10,0,10,0.00
2014-9-27,77.0,59.2,45.0,63.6,54.4,44.4,99,86,59,30.28,30.14,7,0,7,0.01
2014-9-28,75.8,60.5,47.0,64.2,55.4,46.5,99,85,58,30.16,30.02,4,0,4,0.00
2014-9-30,49.4,49.2,49.1,48.0,47.7,47.4,95,95,94,30.01,30.00,0,0,0,0.00
2014-10-1,66.5,55.2,49.3,60.0,53.0,48.2,99,93,71,30.03,29.94,13,1,13,0.01
2014-10-2,64.0,57.9,48.0,61.9,57.0,47.5,99,97,92,29.99,29.68,7,1,7,0.03
2014-10-3,64.3,59.3,48.2,63.7,57.5,43.6,99,94,78,29.68,29.25,23,5,23,1.27
2014-10-4,50.4,43.7,37.5,43.3,39.0,35.9,96,84,61,29.58,29.50,20,5,20,0.03
2014-10-5,51.0,44.2,40.7,42.3,39.9,36.6,100,86,59,29.62,29.57,17,4,17,0.03
2014-10-6,59.6,48.5,42.7,52.6,45.3,40.8,97,89,70,29.60,29.48,12,1,12,0.25
2014-10-7,62.2,50.0,41.8,51.7,45.8,40.8,98,87,64,29.66,29.56,28,4,28,0.01
2014-10-8,57.5,46.5,33.5,46.8,38.1,31.9,97,75,42,29.92,29.65,26,5,26,0.01
2014-10-9,57.1,42.8,31.4,41.7,36.6,30.4,97,81,53,30.08,29.92,18,2,18,0.00
2014-10-10,56.4,43.1,31.2,43.3,36.3,30.2,98,79,48,30.16,30.07,12,1,12,0.00
2014-10-11,57.2,40.0,27.8,42.5,33.7,26.8,98,81,48,30.23,30.14,12,1,12,0.01
2014-10-12,60.7,42.9,26.9,44.0,35.9,25.9,98,80,45,30.19,29.98,18,2,18,0.01
2014-10-13,64.7,55.6,45.0,62.7,53.9,41.1,100,94,85,29.98,29.68,14,1,14,0.11
2014-10-14,69.1,63.6,57.6,63.7,61.4,57.0,98,93,81,29.68,29.50,21,4,21,0.46
2014-10-15,62.9,58.3,54.6,57.9,56.1,53.5,99,93,79,29.75,29.57,14,1,14,0.00
2014-10-16,58.4,53.9,51.2,55.8,52.7,50.6,99,96,86,29.74,29.59,10,1,10,0.03
2014-10-17,61.4,53.3,44.0,54.2,50.0,41.0,96,89,70,29.60,29.36,20,6,20,0.02
2014-10-18,47.3,42.9,36.3,40.7,37.4,30.3,94,81,64,30.11,29.60,16,4,16,0.01
2014-10-19,51.3,39.9,27.4,41.1,34.0,26.0,96,80,62,30.16,29.87,18,2,18,0.00
2014-10-20,56.2,48.7,44.3,50.9,45.5,40.8,96,89,78,29.87,29.72,13,2,13,0.15
2014-10-21,51.7,44.8,33.3,44.1,38.5,29.8,93,79,57,30.25,29.86,18,2,18,0.00
2014-10-22,49.2,40.4,29.9,40.2,35.8,28.5,95,84,70,30.36,30.24,7,0,7,0.00
2014-10-23,53.9,36.2,24.8,40.7,32.3,23.8,98,87,58,30.27,30.06,10,1,10,0.00
2014-10-24,57.6,46.7,33.1,51.3,43.5,31.8,96,89,76,30.06,29.87,10,1,10,0.00
2014-10-25,67.7,54.2,45.0,53.8,42.3,33.4,98,69,31,29.87,29.62,29,7,29,0.00
2014-10-26,59.9,48.6,35.7,38.2,34.2,30.5,82,59,41,29.91,29.75,16,4,18,0.00
2014-10-27,57.8,44.3,28.9,48.8,38.8,27.3,96,82,61,29.91,29.60,9,1,9,0.00
2014-10-28,65.5,57.0,47.4,58.7,46.0,35.1,87,68,43,29.78,29.53,26,8,27,0.16
2014-10-29,49.2,44.5,36.6,40.3,37.2,34.1,91,76,63,30.04,29.77,24,5,24,0.00
2014-10-30,48.4,39.5,30.5,43.3,36.8,29.5,97,91,69,30.10,29.93,13,1,13,0.03
2014-10-31,41.4,36.7,31.2,39.2,33.4,23.1,96,88,71,30.26,29.85,28,6,28,0.17
2014-11-1,40.3,31.5,22.9,23.9,20.5,16.6,85,64,44,30.39,30.26,17,4,17,0.00
2014-11-2,48.3,32.9,18.6,30.5,23.9,16.6,94,72,45,30.41,30.18,14,2,14,0.00
2014-11-3,56.3,48.1,42.3,38.9,32.6,26.3,73,55,44,30.18,29.89,18,5,18,0.00
2014-11-4,56.3,49.9,39.4,51.7,43.4,34.7,96,79,55,29.90,29.69,23,9,23,0.11
2014-11-5,51.4,44.7,39.8,39.0,35.3,32.5,89,71,54,30.03,29.86,21,6,21,0.00
2014-11-6,46.5,40.4,35.1,44.9,37.7,28.1,100,90,74,30.04,29.74,16,4,17,0.22
2014-11-7,41.8,36.0,30.5,32.7,27.0,23.8,88,70,52,30.09,29.87,16,2,16,0.01
2014-11-8,43.0,36.6,32.9,39.2,33.5,27.8,97,89,76,29.87,29.62,18,5,18,0.26
2014-11-9,43.3,36.9,30.6,37.3,32.1,26.7,91,83,72,29.84,29.69,21,5,21,0.03
2014-11-10,48.8,40.9,34.4,41.3,37.1,30.9,93,86,64,29.92,29.63,14,2,14,0.00
2014-11-11,51.2,45.6,32.8,47.4,38.5,29.7,95,77,64,29.81,29.51,22,4,22,0.16
2014-11-12,33.4,30.8,28.7,29.7,22.9,20.6,88,72,62,30.16,29.81,31,9,31,0.00
2014-11-13,32.7,28.3,23.3,23.4,20.2,16.1,86,72,51,30.15,30.08,16,5,16,0.00
2014-11-14,31.9,26.5,21.8,26.5,23.2,19.6,93,87,74,30.29,30.12,15,3,15,0.00
2014-11-15,29.8,26.9,22.6,24.1,21.5,19.0,92,80,65,30.31,30.17,18,3,18,0.01
2014-11-16,29.9,27.2,24.4,26.3,24.4,22.3,100,89,81,30.17,29.83,13,4,13,0.00
2014-11-17,28.5,23.0,13.9,26.3,17.6,8.7,92,80,58,29.83,29.60,20,7,21,0.00
2014-11-18,24.9,17.8,13.3,14.2,11.2,8.7,92,76,54,30.01,29.67,30,11,30,0.00
2014-11-19,23.2,19.4,14.7,20.8,15.8,12.0,91,86,74,30.00,29.63,21,8,21,0.00
2014-11-20,24.6,18.4,10.5,15.7,11.5,6.2,88,75,52,30.15,29.75,24,8,24,0.00
2014-11-21,26.5,18.5,5.4,16.1,11.8,2.8,90,76,57,30.43,30.15,21,5,21,0.00
2014-11-22,43.2,33.0,22.7,42.7,29.6,14.2,98,88,67,30.23,29.83,20,6,20,0.04
2014-11-23,50.3,46.8,43.3,47.5,45.4,42.8,98,95,89,29.86,29.16,16,3,16,1.03
2014-11-24,50.9,43.8,31.8,49.5,42.4,27.8,99,95,85,29.51,28.92,41,11,41,0.82
2014-11-25,32.9,30.3,28.2,29.5,25.3,21.6,92,82,75,30.18,29.51,31,10,31,0.01
2014-11-26,29.9,28.0,26.8,24.3,22.6,21.0,88,80,74,30.19,30.09,10,0,10,0.00
2014-11-27,28.5,26.2,21.3,24.5,21.4,13.4,90,82,68,30.25,30.09,18,4,18,0.00
2014-11-28,24.0,22.8,19.3,21.8,18.5,12.5,93,84,71,30.28,30.04,12,4,12,0.00
2014-11-29,47.0,35.1,23.8,44.6,30.0,21.8,92,82,69,30.04,29.57,21,6,21,0.05
2014-11-30,51.4,44.1,29.4,48.4,41.1,23.4,95,89,78,30.11,29.55,20,6,20,0.02
2014-12-1,29.4,20.2,8.8,23.3,11.3,4.7,84,68,53,30.69,30.11,22,5,22,0.00
2014-12-2,29.7,20.6,7.3,26.6,16.3,4.2,90,83,74,30.65,29.97,17,2,17,0.00
2014-12-3,34.6,29.4,22.8,29.1,23.4,15.0,92,79,60,30.27,29.92,24,9,24,0.00
2014-12-4,28.9,22.5,14.1,19.1,15.0,10.9,90,74,54,30.46,30.27,7,1,7,0.00
2014-12-5,34.9,30.3,23.5,29.0,24.6,17.3,85,79,71,30.38,30.18,5,0,5,0.00
2014-12-6,39.4,31.7,22.1,29.6,23.2,14.8,92,72,48,30.66,30.22,16,2,16,0.00
2014-12-7,33.1,25.4,17.0,25.9,19.0,13.9,89,77,58,30.72,30.48,13,2,13,0.00
2014-12-8,37.4,33.0,32.0,31.2,30.7,28.9,96,91,71,30.02,30.01,10,1,10,0.00
2014-12-9,36.2,33.2,30.6,34.5,31.2,26.0,97,92,81,30.29,30.01,14,2,14,0.04
2014-12-10,31.8,25.5,19.9,23.5,19.6,12.9,86,78,63,30.35,30.12,9,3,9,0.00
2014-12-11,40.7,27.3,17.8,25.3,18.1,10.4,87,69,45,30.13,30.03,18,5,18,0.00
2014-12-12,32.8,29.7,25.7,30.9,27.3,22.8,100,90,87,30.19,30.10,13,4,14,0.00
2014-12-13,43.0,36.3,31.2,41.7,35.0,29.7,97,95,92,30.15,29.95,18,7,18,0.00
2014-12-14,46.1,43.2,39.8,44.1,41.6,37.6,98,94,90,30.02,29.96,14,2,14,0.00
2014-12-15,49.5,45.0,41.5,46.1,43.7,40.2,99,95,86,30.00,29.77,13,2,13,0.03
2014-12-16,42.8,41.3,36.2,42.5,40.7,34.4,100,98,94,29.82,29.62,18,1,18,0.15
2014-12-17,36.0,29.7,25.5,34.3,26.8,22.7,96,89,79,30.09,29.81,22,9,22,0.02
2014-12-18,29.4,26.9,22.8,27.0,23.5,19.2,92,87,83,30.23,30.10,12,2,12,0.00
2014-12-19,31.5,22.3,15.5,21.9,17.6,13.6,93,83,64,30.31,30.21,6,0,7,0.01
2014-12-20,30.0,19.8,11.0,24.0,16.8,9.1,100,88,73,30.32,30.25,4,0,4,0.00
2014-12-21,32.9,28.2,18.2,29.5,25.3,16.5,95,89,80,30.28,30.14,10,2,10,0.00
2014-12-22,34.4,30.4,25.3,30.8,26.8,23.0,94,86,77,30.14,29.87,13,3,13,0.00
2014-12-23,42.9,36.9,32.3,42.6,36.2,30.8,99,97,94,29.87,29.71,14,2,14,0.31
2014-12-24,38.7,36.4,32.0,38.3,36.1,31.4,99,99,98,29.76,29.19,13,2,13,0.88
2014-12-25,36.3,34.4,31.4,33.7,31.3,29.2,98,89,81,30.02,29.36,24,7,24,0.25
2014-12-26,38.8,32.9,27.2,35.8,31.2,26.2,98,94,87,30.06,30.00,12,1,12,0.00
2014-12-27,47.6,39.1,32.6,45.5,37.2,31.8,98,93,79,30.04,29.76,28,7,28,0.02
2014-12-28,33.8,30.7,26.3,33.8,24.1,15.0,100,77,62,30.19,29.93,17,4,17,0.00
2014-12-29,27.3,22.4,15.7,18.6,13.6,8.8,83,69,54,30.44,30.19,12,2,12,0.00
2014-12-30,20.1,16.6,12.2,11.3,6.6,3.1,78,64,53,30.54,30.44,20,5,20,0.00
2014-12-31,20.2,14.3,10.4,12.9,5.8,1.6,79,69,58,30.45,29.95,33,11,33,0.00
2015-1-1,27.7,24.5,19.0,22.8,17.9,12.2,84,76,64,30.00,29.77,26,13,33,0.00
2015-1-2,30.5,23.3,14.9,19.8,14.1,10.2,88,68,47,30.32,30.00,17,3,17,0.00